createdAt,value
2022-08-25T00:00:06.727Z,101594.34
2022-08-25T00:00:42.518Z,101593.50
2022-08-25T00:01:23.117Z,101590.72
2022-08-25T00:02:04.729Z,101592.28
2022-08-25T00:02:39.420Z,101587.69
2022-08-25T00:03:12.974Z,101590.44
2022-08-25T00:03:46.717Z,101589.88
2022-08-25T00:04:20.939Z,101589.91
2022-08-25T00:04:53.670Z,101589.19
2022-08-25T00:05:29.387Z,101586.75
2022-08-25T00:06:05.459Z,101585.72
2022-08-25T00:06:41.726Z,101593.81
2022-08-25T00:07:16.009Z,101593.00
2022-08-25T00:07:53.718Z,101590.03
2022-08-25T00:08:29.119Z,101589.31
2022-08-25T00:09:02.518Z,101596.09
2022-08-25T00:09:36.508Z,101591.06
2022-08-25T00:10:10.317Z,101589.09
2022-08-25T00:10:45.521Z,101594.38
2022-08-25T00:11:35.759Z,101592.44
2022-08-25T00:12:07.255Z,101596.25
2022-08-25T00:12:38.720Z,101592.22
2022-08-25T00:13:12.522Z,101590.84
2022-08-25T00:13:47.197Z,101596.84
2022-08-25T00:14:20.226Z,101594.63
2022-08-25T00:14:54.518Z,101595.75
2022-08-25T00:15:26.560Z,101597.88
2022-08-25T00:15:59.918Z,101599.50
2022-08-25T00:16:32.529Z,101586.88
2022-08-25T00:17:07.527Z,101596.19
2022-08-25T00:17:40.539Z,101592.47
2022-08-25T00:18:19.676Z,101597.94
2022-08-25T00:18:56.450Z,101598.69
2022-08-25T00:19:30.193Z,101591.97
2022-08-25T00:20:01.661Z,101599.28
2022-08-25T00:20:33.096Z,101602.44
2022-08-25T00:21:07.118Z,101604.16
2022-08-25T00:21:41.900Z,101597.44
2022-08-25T00:22:13.921Z,101603.88
2022-08-25T00:22:47.642Z,101589.00
2022-08-25T00:23:21.354Z,101599.88
2022-08-25T00:23:54.117Z,101601.84
2022-08-25T00:24:26.870Z,101598.47
2022-08-25T00:25:00.317Z,101606.81
2022-08-25T00:25:32.541Z,101601.31
2022-08-25T00:26:04.602Z,101595.97
2022-08-25T00:26:40.518Z,101603.66
2022-08-25T00:27:15.692Z,101601.41
2022-08-25T00:27:51.722Z,101603.66
2022-08-25T00:28:24.085Z,101599.66
2022-08-25T00:29:01.327Z,101599.69
2022-08-25T00:29:40.117Z,101590.84
2022-08-25T00:30:16.518Z,101597.97
2022-08-25T00:30:50.129Z,101598.25
2022-08-25T00:31:37.857Z,101597.88
2022-08-25T00:32:13.710Z,101601.81
2022-08-25T00:32:55.466Z,101592.75
2022-08-25T00:33:31.276Z,101593.72
2022-08-25T00:34:05.118Z,101599.00
2022-08-25T00:34:44.517Z,101599.63
2022-08-25T00:35:19.390Z,101600.78
2022-08-25T00:35:54.317Z,101598.66
2022-08-25T00:36:29.929Z,101596.56
2022-08-25T00:37:04.791Z,101595.91
2022-08-25T00:37:39.216Z,101595.19
2022-08-25T00:38:13.919Z,101597.66
2022-08-25T00:38:47.717Z,101590.09
2022-08-25T00:39:21.154Z,101595.50
2022-08-25T00:39:56.656Z,101598.78
2022-08-25T00:40:32.164Z,101599.22
2022-08-25T00:41:08.329Z,101600.41
2022-08-25T00:41:44.317Z,101597.66
2022-08-25T00:42:22.521Z,101596.78
2022-08-25T00:42:57.918Z,101598.03
2022-08-25T00:43:53.789Z,101595.94
2022-08-25T00:44:29.927Z,101593.22
2022-08-25T00:45:06.919Z,101597.47
2022-08-25T00:45:39.450Z,101609.25
2022-08-25T00:46:12.168Z,101606.31
2022-08-25T00:46:48.526Z,101611.94
2022-08-25T00:47:20.724Z,101601.91
2022-08-25T00:47:54.657Z,101598.59
2022-08-25T00:48:32.520Z,101595.50
2022-08-25T00:49:25.466Z,101594.19
2022-08-25T00:49:58.921Z,101599.09
2022-08-25T00:50:32.263Z,101603.50
2022-08-25T00:51:05.483Z,101597.44
2022-08-25T00:51:38.775Z,101602.28
2022-08-25T00:52:28.526Z,101598.59
2022-08-25T00:53:03.075Z,101597.19
2022-08-25T00:53:37.319Z,101608.75
2022-08-25T00:54:10.728Z,101600.59
2022-08-25T00:54:44.769Z,101606.69
2022-08-25T00:55:24.918Z,101607.00
2022-08-25T00:55:59.028Z,101598.97
2022-08-25T00:56:32.718Z,101603.03
2022-08-25T00:57:07.976Z,101603.78
2022-08-25T00:57:44.525Z,101608.63
2022-08-25T00:58:26.908Z,101607.97
2022-08-25T00:58:58.589Z,101605.44
2022-08-25T00:59:31.910Z,101609.56
2022-08-25T01:00:07.920Z,101612.44
2022-08-25T01:00:45.318Z,101607.81
2022-08-25T01:01:20.208Z,101608.31
2022-08-25T01:01:55.237Z,101611.66
2022-08-25T01:02:27.589Z,101612.19
2022-08-25T01:03:04.173Z,101609.19
2022-08-25T01:03:37.257Z,101607.00
2022-08-25T01:04:11.398Z,101606.81
2022-08-25T01:04:49.163Z,101607.00
2022-08-25T01:05:22.118Z,101608.31
2022-08-25T01:05:58.319Z,101604.03
2022-08-25T01:06:34.519Z,101599.78
2022-08-25T01:07:11.234Z,101607.94
2022-08-25T01:07:50.217Z,101603.19
2022-08-25T01:08:26.348Z,101599.25
2022-08-25T01:09:00.588Z,101606.13
2022-08-25T01:09:36.133Z,101606.50
2022-08-25T01:10:12.133Z,101604.69
2022-08-25T01:10:43.941Z,101597.66
2022-08-25T01:11:15.578Z,101601.44
2022-08-25T01:11:49.342Z,101605.03
2022-08-25T01:12:23.317Z,101599.09
2022-08-25T01:13:16.022Z,101605.03
2022-08-25T01:13:53.719Z,101601.72
2022-08-25T01:14:25.622Z,101599.41
2022-08-25T01:14:58.317Z,101602.41
2022-08-25T01:15:32.057Z,101609.06
2022-08-25T01:16:07.454Z,101596.84
2022-08-25T01:16:40.576Z,101595.91
2022-08-25T01:17:12.333Z,101600.47
2022-08-25T01:17:49.500Z,101602.34
2022-08-25T01:18:22.519Z,101596.88
2022-08-25T01:18:59.524Z,101592.84
2022-08-25T01:19:35.561Z,101594.63
2022-08-25T01:20:07.898Z,101593.50
2022-08-25T01:20:43.310Z,101600.94
2022-08-25T01:21:16.916Z,101599.59
2022-08-25T01:21:53.515Z,101597.13
2022-08-25T01:22:28.328Z,101594.19
2022-08-25T01:23:01.008Z,101603.03
2022-08-25T01:23:32.648Z,101604.91
2022-08-25T01:24:05.517Z,101596.22
2022-08-25T01:24:41.124Z,101595.09
2022-08-25T01:25:18.024Z,101602.28
2022-08-25T01:26:06.142Z,101597.63
2022-08-25T01:26:37.647Z,101602.41
2022-08-25T01:27:13.193Z,101595.97
2022-08-25T01:27:45.065Z,101601.91
2022-08-25T01:28:20.339Z,101604.84
2022-08-25T01:29:13.319Z,101608.28
2022-08-25T01:29:51.121Z,101609.09
2022-08-25T01:30:26.719Z,101600.94
2022-08-25T01:31:00.815Z,101599.19
2022-08-25T01:31:33.055Z,101604.69
2022-08-25T01:32:10.723Z,101599.75
2022-08-25T01:32:47.923Z,101599.63
2022-08-25T01:33:24.316Z,101606.34
2022-08-25T01:33:58.994Z,101611.09
2022-08-25T01:34:37.926Z,101607.31
2022-08-25T01:35:12.917Z,101601.53
2022-08-25T01:35:47.722Z,101596.72
2022-08-25T01:36:22.917Z,101595.91
2022-08-25T01:36:57.002Z,101600.78
2022-08-25T01:37:29.918Z,101600.72
2022-08-25T01:38:03.307Z,101600.78
2022-08-25T01:38:37.917Z,101603.16
2022-08-25T01:39:12.925Z,101601.09
2022-08-25T01:39:47.380Z,101601.97
2022-08-25T01:40:23.050Z,101606.13
2022-08-25T01:40:57.717Z,101595.91
2022-08-25T01:41:39.131Z,101587.91
2022-08-25T01:42:19.750Z,101594.44
2022-08-25T01:43:02.476Z,101601.22
2022-08-25T01:43:39.570Z,101594.34
2022-08-25T01:44:16.773Z,101590.91
2022-08-25T01:44:51.728Z,101589.09
2022-08-25T01:45:26.162Z,101592.84
2022-08-25T01:46:00.733Z,101586.97
2022-08-25T01:46:36.057Z,101583.50
2022-08-25T01:47:12.717Z,101585.44
2022-08-25T01:47:46.323Z,101585.50
2022-08-25T01:48:21.715Z,101589.38
2022-08-25T01:48:57.678Z,101583.19
2022-08-25T01:49:31.918Z,101584.38
2022-08-25T01:50:07.518Z,101582.19
2022-08-25T01:50:43.722Z,101585.84
2022-08-25T01:51:19.320Z,101582.06
2022-08-25T01:51:56.717Z,101584.50
2022-08-25T01:52:44.124Z,101578.88
2022-08-25T01:53:34.325Z,101576.38
2022-08-25T01:54:09.115Z,101583.31
2022-08-25T01:54:44.916Z,101581.13
2022-08-25T01:55:20.717Z,101582.91
2022-08-25T01:55:57.989Z,101588.88
2022-08-25T01:56:34.727Z,101585.41
2022-08-25T01:57:10.517Z,101582.47
2022-08-25T01:57:44.794Z,101592.19
2022-08-25T01:58:21.320Z,101586.28
2022-08-25T01:58:56.517Z,101581.09
2022-08-25T01:59:31.117Z,101586.53
2022-08-25T02:00:07.467Z,101581.97
2022-08-25T02:00:47.517Z,101581.09
2022-08-25T02:01:24.990Z,101577.38
2022-08-25T02:02:00.939Z,101577.69
2022-08-25T02:02:42.546Z,101578.81
2022-08-25T02:03:18.813Z,101585.03
2022-08-25T02:03:56.193Z,101582.63
2022-08-25T02:04:34.349Z,101582.63
2022-08-25T02:05:12.125Z,101575.38
2022-08-25T02:05:48.231Z,101574.53
2022-08-25T02:06:28.856Z,101579.91
2022-08-25T02:07:06.916Z,101577.94
2022-08-25T02:07:46.920Z,101577.16
2022-08-25T02:08:24.923Z,101576.66
2022-08-25T02:09:02.121Z,101564.06
2022-08-25T02:09:33.730Z,101577.78
2022-08-25T02:10:08.341Z,101574.31
2022-08-25T02:10:42.717Z,101575.75
2022-08-25T02:11:17.808Z,101579.78
2022-08-25T02:11:52.317Z,101584.59
2022-08-25T02:12:26.918Z,101580.34
2022-08-25T02:13:01.317Z,101582.91
2022-08-25T02:13:37.321Z,101579.06
2022-08-25T02:14:09.777Z,101583.44
2022-08-25T02:14:44.917Z,101583.81
2022-08-25T02:15:19.073Z,101580.91
2022-08-25T02:15:54.109Z,101589.84
2022-08-25T02:16:28.839Z,101592.13
2022-08-25T02:17:04.141Z,101584.09
2022-08-25T02:17:38.717Z,101588.44
2022-08-25T02:18:14.317Z,101590.63
2022-08-25T02:18:50.532Z,101581.44
2022-08-25T02:19:27.916Z,101587.06
2022-08-25T02:20:02.520Z,101584.09
2022-08-25T02:20:38.119Z,101592.31
2022-08-25T02:21:14.478Z,101592.03
2022-08-25T02:21:49.917Z,101590.25
2022-08-25T02:22:26.728Z,101585.97
2022-08-25T02:22:59.083Z,101584.38
2022-08-25T02:23:30.568Z,101585.44
2022-08-25T02:24:03.916Z,101580.66
2022-08-25T02:24:36.745Z,101590.56
2022-08-25T02:25:11.516Z,101581.97
2022-08-25T02:25:44.229Z,101589.59
2022-08-25T02:26:19.924Z,101589.09
2022-08-25T02:26:53.916Z,101589.72
2022-08-25T02:27:30.317Z,101586.31
2022-08-25T02:28:03.176Z,101582.75
2022-08-25T02:28:34.638Z,101582.69
2022-08-25T02:29:09.316Z,101591.88
2022-08-25T02:29:43.918Z,101590.94
2022-08-25T02:30:20.132Z,101590.72
2022-08-25T02:30:58.710Z,101586.28
2022-08-25T02:31:36.717Z,101585.41
2022-08-25T02:32:11.123Z,101579.75
2022-08-25T02:32:45.518Z,101579.50
2022-08-25T02:33:21.483Z,101578.72
2022-08-25T02:33:56.325Z,101587.94
2022-08-25T02:34:32.717Z,101576.38
2022-08-25T02:35:07.369Z,101570.53
2022-08-25T02:35:42.716Z,101572.19
2022-08-25T02:36:14.933Z,101573.91
2022-08-25T02:36:49.189Z,101569.28
2022-08-25T02:37:25.999Z,101568.50
2022-08-25T02:38:01.735Z,101567.81
2022-08-25T02:38:36.715Z,101561.59
2022-08-25T02:39:09.710Z,101577.38
2022-08-25T02:39:43.716Z,101570.59
2022-08-25T02:40:19.366Z,101574.16
2022-08-25T02:40:55.117Z,101575.22
2022-08-25T02:41:31.778Z,101557.69
2022-08-25T02:42:06.515Z,101565.00
2022-08-25T02:42:42.760Z,101573.09
2022-08-25T02:43:17.525Z,101571.94
2022-08-25T02:43:49.788Z,101568.16
2022-08-25T02:44:23.536Z,101568.19
2022-08-25T02:44:59.321Z,101567.91
2022-08-25T02:45:33.361Z,101566.56
2022-08-25T02:46:08.015Z,101572.00
2022-08-25T02:46:41.695Z,101575.00
2022-08-25T02:47:13.120Z,101578.09
2022-08-25T02:47:44.717Z,101574.66
2022-08-25T02:48:20.119Z,101571.69
2022-08-25T02:48:55.116Z,101572.50
2022-08-25T02:49:30.129Z,101577.91
2022-08-25T02:50:03.491Z,101569.28
2022-08-25T02:50:35.396Z,101573.59
2022-08-25T02:51:09.234Z,101577.66
2022-08-25T02:51:54.552Z,101569.72
2022-08-25T02:52:26.100Z,101578.72
2022-08-25T02:53:00.518Z,101568.47
2022-08-25T02:53:33.345Z,101563.09
2022-08-25T02:54:05.055Z,101571.47
2022-08-25T02:54:39.595Z,101571.47
2022-08-25T02:55:15.317Z,101560.13
2022-08-25T02:55:47.907Z,101561.28
2022-08-25T02:56:20.031Z,101558.00
2022-08-25T02:56:54.517Z,101554.75
2022-08-25T02:57:30.920Z,101561.84
2022-08-25T02:58:04.683Z,101562.88
2022-08-25T02:58:41.316Z,101569.91
2022-08-25T02:59:17.116Z,101552.13
2022-08-25T02:59:53.116Z,101558.66
2022-08-25T03:00:28.316Z,101552.13
2022-08-25T03:01:03.371Z,101557.25
2022-08-25T03:01:37.303Z,101561.31
2022-08-25T03:02:11.517Z,101557.50
2022-08-25T03:02:46.516Z,101559.16
2022-08-25T03:03:21.516Z,101559.09
2022-08-25T03:03:57.082Z,101557.72
2022-08-25T03:04:36.146Z,101553.69
2022-08-25T03:05:09.419Z,101543.44
2022-08-25T03:05:43.603Z,101546.44
2022-08-25T03:06:16.820Z,101545.91
2022-08-25T03:06:51.318Z,101551.03
2022-08-25T03:07:25.118Z,101552.06
2022-08-25T03:08:01.390Z,101554.81
2022-08-25T03:08:36.915Z,101556.97
2022-08-25T03:09:11.316Z,101544.94
2022-08-25T03:09:46.339Z,101543.63
2022-08-25T03:10:23.118Z,101548.22
2022-08-25T03:10:56.446Z,101547.69
2022-08-25T03:11:32.916Z,101546.66
2022-08-25T03:12:06.922Z,101543.69
2022-08-25T03:12:43.602Z,101547.25
2022-08-25T03:13:17.105Z,101544.06
2022-08-25T03:13:52.014Z,101534.88
2022-08-25T03:14:26.717Z,101545.16
2022-08-25T03:15:02.183Z,101544.91
2022-08-25T03:15:37.660Z,101545.13
2022-08-25T03:16:12.323Z,101545.69
2022-08-25T03:16:47.249Z,101535.44
2022-08-25T03:17:22.140Z,101542.47
2022-08-25T03:17:59.916Z,101539.50
2022-08-25T03:18:34.317Z,101539.75
2022-08-25T03:19:08.320Z,101544.09
2022-08-25T03:19:42.119Z,101539.22
2022-08-25T03:20:17.916Z,101537.59
2022-08-25T03:20:52.135Z,101538.66
2022-08-25T03:21:27.728Z,101537.53
2022-08-25T03:21:59.714Z,101534.28
2022-08-25T03:22:34.292Z,101542.41
2022-08-25T03:23:08.139Z,101536.97
2022-08-25T03:23:44.320Z,101534.25
2022-08-25T03:24:18.722Z,101531.75
2022-08-25T03:24:50.678Z,101531.56
2022-08-25T03:25:41.522Z,101539.09
2022-08-25T03:26:33.915Z,101538.84
2022-08-25T03:27:09.719Z,101534.75
2022-08-25T03:27:46.721Z,101544.84
2022-08-25T03:28:21.715Z,101546.41
2022-08-25T03:29:08.717Z,101541.06
2022-08-25T03:29:44.318Z,101543.22
2022-08-25T03:30:21.120Z,101546.38
2022-08-25T03:30:57.183Z,101547.41
2022-08-25T03:31:34.366Z,101550.13
2022-08-25T03:32:09.956Z,101547.41
2022-08-25T03:32:44.517Z,101538.25
2022-08-25T03:33:20.117Z,101536.66
2022-08-25T03:33:55.318Z,101536.66
2022-08-25T03:34:28.439Z,101539.56
2022-08-25T03:35:02.782Z,101531.75
2022-08-25T03:35:37.315Z,101533.94
2022-08-25T03:36:14.116Z,101531.75
2022-08-25T03:36:50.518Z,101540.38
2022-08-25T03:37:26.117Z,101532.25
2022-08-25T03:38:03.637Z,101533.34
2022-08-25T03:38:40.394Z,101533.88
2022-08-25T03:39:16.116Z,101536.53
2022-08-25T03:39:53.153Z,101527.88
2022-08-25T03:40:27.761Z,101544.00
2022-08-25T03:41:02.518Z,101538.38
2022-08-25T03:41:34.625Z,101541.00
2022-08-25T03:42:12.730Z,101538.56
2022-08-25T03:42:46.813Z,101538.78
2022-08-25T03:43:20.917Z,101537.91
2022-08-25T03:43:55.768Z,101535.78
2022-08-25T03:44:29.924Z,101539.00
2022-08-25T03:45:06.489Z,101532.47
2022-08-25T03:45:44.370Z,101542.47
2022-08-25T03:46:20.454Z,101539.69
2022-08-25T03:46:55.144Z,101538.19
2022-08-25T03:47:32.117Z,101541.94
2022-08-25T03:48:06.457Z,101541.13
2022-08-25T03:48:41.721Z,101547.34
2022-08-25T03:49:23.922Z,101554.31
2022-08-25T03:49:59.609Z,101547.03
2022-08-25T03:50:34.123Z,101547.16
2022-08-25T03:51:08.717Z,101548.47
2022-08-25T03:51:48.916Z,101544.41
2022-08-25T03:52:20.473Z,101543.84
2022-08-25T03:52:56.603Z,101554.59
2022-08-25T03:53:30.716Z,101553.97
2022-08-25T03:54:05.357Z,101549.88
2022-08-25T03:54:40.916Z,101552.34
2022-08-25T03:55:16.918Z,101544.97
2022-08-25T03:55:52.287Z,101548.94
2022-08-25T03:56:29.321Z,101552.88
2022-08-25T03:57:05.316Z,101548.50
2022-08-25T03:57:38.179Z,101547.81
2022-08-25T03:58:12.116Z,101547.81
2022-08-25T03:58:48.115Z,101549.63
2022-08-25T03:59:22.079Z,101556.03
2022-08-25T03:59:57.122Z,101560.28
2022-08-25T04:00:32.854Z,101557.03
2022-08-25T04:01:06.606Z,101555.47
2022-08-25T04:01:42.347Z,101549.25
2022-08-25T04:02:15.692Z,101559.16
2022-08-25T04:02:48.316Z,101550.97
2022-08-25T04:03:23.120Z,101548.94
2022-08-25T04:03:55.706Z,101551.69
2022-08-25T04:04:30.115Z,101548.69
2022-08-25T04:05:03.854Z,101549.00
2022-08-25T04:05:35.678Z,101544.09
2022-08-25T04:06:09.991Z,101548.81
2022-08-25T04:06:44.124Z,101545.38
2022-08-25T04:07:19.717Z,101541.31
2022-08-25T04:07:54.303Z,101552.28
2022-08-25T04:08:28.914Z,101548.91
2022-08-25T04:09:01.530Z,101546.59
2022-08-25T04:09:36.981Z,101548.63
2022-08-25T04:10:14.470Z,101548.44
2022-08-25T04:10:49.146Z,101539.66
2022-08-25T04:11:22.450Z,101537.22
2022-08-25T04:11:53.971Z,101535.56
2022-08-25T04:12:25.536Z,101542.69
2022-08-25T04:13:00.916Z,101535.25
2022-08-25T04:13:33.327Z,101534.78
2022-08-25T04:14:07.322Z,101539.09
2022-08-25T04:14:38.921Z,101532.16
2022-08-25T04:15:13.071Z,101532.00
2022-08-25T04:15:45.959Z,101526.91
2022-08-25T04:16:24.776Z,101529.88
2022-08-25T04:17:00.413Z,101533.41
2022-08-25T04:17:32.762Z,101528.94
2022-08-25T04:18:04.839Z,101533.00
2022-08-25T04:18:40.319Z,101516.34
2022-08-25T04:19:14.722Z,101522.38
2022-08-25T04:19:48.866Z,101518.38
2022-08-25T04:20:20.471Z,101518.13
2022-08-25T04:20:58.121Z,101518.97
2022-08-25T04:21:32.322Z,101513.44
2022-08-25T04:22:07.115Z,101519.31
2022-08-25T04:22:40.914Z,101515.56
2022-08-25T04:23:18.904Z,101514.00
2022-08-25T04:23:57.514Z,101512.13
2022-08-25T04:24:31.665Z,101515.13
2022-08-25T04:25:05.714Z,101506.47
2022-08-25T04:25:42.296Z,101511.88
2022-08-25T04:26:20.213Z,101517.81
2022-08-25T04:26:55.515Z,101521.41
2022-08-25T04:27:30.514Z,101503.88
2022-08-25T04:28:02.802Z,101503.13
2022-08-25T04:28:35.714Z,101507.50
2022-08-25T04:29:10.697Z,101498.94
2022-08-25T04:29:45.622Z,101508.31
2022-08-25T04:30:21.715Z,101502.75
2022-08-25T04:30:57.115Z,101506.09
2022-08-25T04:31:33.162Z,101501.13
2022-08-25T04:32:07.946Z,101496.81
2022-08-25T04:32:41.821Z,101506.28
2022-08-25T04:33:13.654Z,101497.94
2022-08-25T04:33:46.599Z,101504.97
2022-08-25T04:34:30.722Z,101506.16
2022-08-25T04:35:06.316Z,101506.69
2022-08-25T04:35:39.163Z,101506.31
2022-08-25T04:36:14.920Z,101498.63
2022-08-25T04:36:54.440Z,101496.63
2022-08-25T04:37:28.317Z,101507.53
2022-08-25T04:38:02.834Z,101498.06
2022-08-25T04:38:38.321Z,101499.72
2022-08-25T04:39:10.526Z,101508.03
2022-08-25T04:39:45.800Z,101501.00
2022-08-25T04:40:18.185Z,101496.09
2022-08-25T04:41:02.280Z,101506.91
2022-08-25T04:41:36.922Z,101497.75
2022-08-25T04:42:11.514Z,101499.31
2022-08-25T04:42:48.104Z,101502.56
2022-08-25T04:43:22.723Z,101502.00
2022-08-25T04:43:58.872Z,101498.75
2022-08-25T04:44:34.513Z,101499.75
2022-08-25T04:45:09.157Z,101497.41
2022-08-25T04:45:44.014Z,101505.03
2022-08-25T04:46:20.794Z,101504.38
2022-08-25T04:46:53.724Z,101507.81
2022-08-25T04:47:27.722Z,101506.81
2022-08-25T04:48:03.590Z,101504.50
2022-08-25T04:48:36.183Z,101512.78
2022-08-25T04:49:10.314Z,101514.56
2022-08-25T04:49:44.381Z,101509.84
2022-08-25T04:50:18.520Z,101509.84
2022-08-25T04:50:52.714Z,101517.25
2022-08-25T04:51:31.719Z,101515.88
2022-08-25T04:52:07.788Z,101522.81
2022-08-25T04:52:51.714Z,101524.84
2022-08-25T04:53:26.916Z,101515.69
2022-08-25T04:54:02.722Z,101521.66
2022-08-25T04:54:39.067Z,101514.25
2022-08-25T04:55:14.597Z,101515.19
2022-08-25T04:55:52.062Z,101528.59
2022-08-25T04:56:28.251Z,101531.84
2022-08-25T04:57:01.222Z,101527.78
2022-08-25T04:57:37.461Z,101531.59
2022-08-25T04:58:14.716Z,101527.47
2022-08-25T04:58:50.316Z,101527.47
2022-08-25T04:59:25.916Z,101521.56
2022-08-25T05:00:06.914Z,101530.22
2022-08-25T05:00:42.010Z,101518.31
2022-08-25T05:01:17.601Z,101513.41
2022-08-25T05:01:55.697Z,101511.97
2022-08-25T05:02:30.514Z,101513.03
2022-08-25T05:03:45.824Z,101513.22
2022-08-25T05:04:28.343Z,101522.44
2022-08-25T05:05:05.113Z,101520.81
2022-08-25T05:05:40.196Z,101522.28
2022-08-25T05:06:16.041Z,101522.91
2022-08-25T05:06:47.942Z,101523.47
2022-08-25T05:07:24.117Z,101514.31
2022-08-25T05:07:59.829Z,101516.81
2022-08-25T05:08:33.196Z,101511.09
2022-08-25T05:09:07.931Z,101513.41
2022-08-25T05:09:43.345Z,101511.31
2022-08-25T05:10:17.658Z,101507.81
2022-08-25T05:10:51.026Z,101511.38
2022-08-25T05:11:25.537Z,101517.63
2022-08-25T05:11:57.631Z,101501.75
2022-08-25T05:12:33.043Z,101502.88
2022-08-25T05:13:08.515Z,101503.69
2022-08-25T05:13:43.916Z,101509.09
2022-08-25T05:14:26.958Z,101505.47
2022-08-25T05:15:21.323Z,101504.97
2022-08-25T05:16:00.187Z,101507.41
2022-08-25T05:18:40.916Z,101503.41
2022-08-25T05:20:46.160Z,101512.00
2022-08-25T05:21:22.717Z,101508.47
2022-08-25T05:21:58.379Z,101513.91
2022-08-25T05:22:34.917Z,101517.44
2022-08-25T05:23:09.719Z,101507.16
2022-08-25T05:23:45.315Z,101513.38
2022-08-25T05:24:21.717Z,101522.22
2022-08-25T05:24:57.115Z,101522.78
2022-08-25T05:25:32.716Z,101514.19
2022-08-25T05:26:27.918Z,101521.25
2022-08-25T05:27:04.514Z,101522.63
2022-08-25T05:27:40.117Z,101516.28
2022-08-25T05:28:18.462Z,101521.16
2022-08-25T05:31:04.035Z,101521.28
2022-08-25T05:31:43.113Z,101513.19
2022-08-25T05:32:20.115Z,101515.13
2022-08-25T05:33:07.715Z,101510.53
2022-08-25T05:33:44.119Z,101497.19
2022-08-25T05:34:18.384Z,101502.34
2022-08-25T05:34:49.858Z,101494.59
2022-08-25T05:35:22.561Z,101500.88
2022-08-25T05:35:54.162Z,101493.63
2022-08-25T05:36:26.842Z,101493.63
2022-08-25T05:37:00.209Z,101495.00
2022-08-25T05:37:31.776Z,101506.31
2022-08-25T05:38:04.310Z,101499.28
2022-08-25T05:38:36.232Z,101497.16
2022-08-25T05:39:07.701Z,101503.41
2022-08-25T05:39:39.142Z,101488.94
2022-08-25T05:40:10.744Z,101488.94
2022-08-25T05:40:42.380Z,101491.59
2022-08-25T05:41:16.177Z,101489.75
2022-08-25T05:41:47.608Z,101493.28
2022-08-25T05:42:19.343Z,101480.63
2022-08-25T05:42:51.066Z,101492.25
2022-08-25T05:43:22.497Z,101488.50
2022-08-25T05:43:54.068Z,101498.22
2022-08-25T05:44:25.603Z,101498.78
2022-08-25T05:44:57.177Z,101485.81
2022-08-25T05:45:28.708Z,101488.03
2022-08-25T05:46:00.466Z,101486.91
2022-08-25T05:46:31.996Z,101487.50
2022-08-25T05:47:03.576Z,101484.53
2022-08-25T05:47:35.028Z,101492.97
2022-08-25T05:48:06.841Z,101485.94
2022-08-25T05:48:38.642Z,101483.78
2022-08-25T05:49:10.157Z,101485.72
2022-08-25T05:49:41.633Z,101482.25
2022-08-25T05:50:13.126Z,101484.19
2022-08-25T05:50:51.147Z,101484.06
2022-08-25T05:51:22.686Z,101477.09
2022-08-25T05:51:54.240Z,101468.44
2022-08-25T05:52:26.862Z,101470.75
2022-08-25T05:52:58.320Z,101474.22
2022-08-25T05:53:31.077Z,101473.25
2022-08-25T05:54:05.824Z,101465.19
2022-08-25T05:54:37.273Z,101466.00
2022-08-25T05:55:08.942Z,101466.56
2022-08-25T05:55:43.955Z,101460.78
2022-08-25T05:56:15.657Z,101463.13
2022-08-25T05:56:47.463Z,101452.31
2022-08-25T05:57:18.901Z,101460.06
2022-08-25T05:57:50.377Z,101460.28
2022-08-25T05:58:22.228Z,101458.66
2022-08-25T05:58:54.367Z,101460.56
2022-08-25T05:59:26.066Z,101455.00
2022-08-25T05:59:57.507Z,101448.88
2022-08-25T06:00:28.949Z,101456.34
2022-08-25T06:01:23.690Z,101450.16
2022-08-25T06:02:13.523Z,101464.13
2022-08-25T06:02:46.454Z,101456.88
2022-08-25T06:03:18.090Z,101455.97
2022-08-25T06:03:50.987Z,101453.63
2022-08-25T06:04:22.691Z,101449.66
2022-08-25T06:04:54.204Z,101460.94
2022-08-25T06:05:25.624Z,101462.81
2022-08-25T06:06:05.712Z,101463.88
2022-08-25T06:06:37.134Z,101449.53
2022-08-25T06:07:08.716Z,101455.72
2022-08-25T06:07:40.461Z,101456.50
2022-08-25T06:08:11.921Z,101460.56
2022-08-25T06:08:44.530Z,101460.03
2022-08-25T06:09:16.025Z,101472.13
2022-08-25T06:09:48.990Z,101462.22
2022-08-25T06:10:21.982Z,101454.59
2022-08-25T06:10:53.456Z,101458.06
2022-08-25T06:11:24.901Z,101469.56
2022-08-25T06:11:56.622Z,101460.06
2022-08-25T06:12:28.065Z,101457.81
2022-08-25T06:13:00.684Z,101463.31
2022-08-25T06:13:32.700Z,101455.53
2022-08-25T06:14:04.784Z,101454.91
2022-08-25T06:14:36.335Z,101463.63
2022-08-25T06:15:08.915Z,101455.41
2022-08-25T06:15:40.514Z,101463.94
2022-08-25T06:16:12.147Z,101463.63
2022-08-25T06:16:43.665Z,101466.19
2022-08-25T06:17:15.621Z,101461.22
2022-08-25T06:17:48.102Z,101459.09
2022-08-25T06:18:19.536Z,101444.75
2022-08-25T06:18:51.026Z,101449.44
2022-08-25T06:19:23.520Z,101455.66
2022-08-25T06:19:55.475Z,101456.84
2022-08-25T06:20:28.739Z,101456.88
2022-08-25T06:21:06.872Z,101458.94
2022-08-25T06:21:39.656Z,101451.84
2022-08-25T06:22:11.293Z,101462.00
2022-08-25T06:22:42.891Z,101453.94
2022-08-25T06:23:14.867Z,101462.25
2022-08-25T06:23:46.382Z,101460.25
2022-08-25T06:24:17.842Z,101463.75
2022-08-25T06:24:49.333Z,101468.34
2022-08-25T06:25:21.942Z,101468.00
2022-08-25T06:25:53.825Z,101462.28
2022-08-25T06:26:27.723Z,101464.16
2022-08-25T06:27:02.917Z,101462.66
2022-08-25T06:27:37.922Z,101470.81
2022-08-25T06:28:13.363Z,101459.47
2022-08-25T06:28:46.288Z,101461.97
2022-08-25T06:29:17.821Z,101464.44
2022-08-25T06:29:49.375Z,101466.75
2022-08-25T06:30:28.939Z,101461.69
2022-08-25T06:31:05.531Z,101462.56
2022-08-25T06:31:39.755Z,101465.91
2022-08-25T06:32:15.847Z,101467.84
2022-08-25T06:32:48.523Z,101466.88
2022-08-25T06:33:21.720Z,101470.34
2022-08-25T06:33:56.323Z,101464.38
2022-08-25T06:34:30.520Z,101463.06
2022-08-25T06:35:06.718Z,101465.50
2022-08-25T06:35:59.103Z,101462.84
2022-08-25T06:36:33.320Z,101465.97
2022-08-25T06:37:08.718Z,101470.25
2022-08-25T06:37:43.673Z,101460.06
2022-08-25T06:38:17.717Z,101467.41
2022-08-25T06:38:51.347Z,101470.16
2022-08-25T06:39:25.918Z,101468.47
2022-08-25T06:40:00.533Z,101478.94
2022-08-25T06:40:35.209Z,101470.00
2022-08-25T06:41:10.118Z,101473.59
2022-08-25T06:41:45.517Z,101478.94
2022-08-25T06:42:21.718Z,101471.84
2022-08-25T06:42:57.318Z,101466.84
2022-08-25T06:43:34.323Z,101481.00
2022-08-25T06:44:12.518Z,101467.44
2022-08-25T06:44:47.318Z,101476.91
2022-08-25T06:45:22.554Z,101465.53
2022-08-25T06:45:57.523Z,101471.78
2022-08-25T06:46:35.923Z,101465.84
2022-08-25T06:47:10.577Z,101469.28
2022-08-25T06:47:46.106Z,101466.63